createdAt,value
2022-08-14T00:02:01.409Z,23.40
2022-08-14T00:04:32.252Z,23.40
2022-08-14T00:07:11.020Z,23.40
2022-08-14T00:09:55.151Z,23.30
2022-08-14T00:12:33.957Z,23.30
2022-08-14T00:15:16.617Z,23.20
2022-08-14T00:17:47.456Z,23.20
2022-08-14T00:20:30.938Z,23.20
2022-08-14T00:23:11.902Z,23.10
2022-08-14T00:25:42.886Z,23.10
2022-08-14T00:28:15.375Z,23.00
2022-08-14T00:30:46.370Z,22.90
2022-08-14T00:33:16.148Z,22.90
2022-08-14T00:36:35.887Z,22.80
2022-08-14T00:38:31.903Z,22.70
2022-08-14T00:40:59.466Z,22.70
2022-08-14T00:43:32.185Z,22.70
2022-08-14T00:46:05.107Z,22.60
2022-08-14T00:48:34.423Z,22.60
2022-08-14T00:51:07.348Z,22.50
2022-08-14T00:53:34.775Z,22.50
2022-08-14T00:56:02.438Z,22.50
2022-08-14T00:58:35.334Z,22.40
2022-08-14T01:01:09.828Z,22.30
2022-08-14T01:03:42.407Z,22.30
2022-08-14T01:06:18.505Z,22.30
2022-08-14T01:08:51.538Z,22.20
2022-08-14T01:11:25.561Z,22.10
2022-08-14T01:14:01.442Z,22.10
2022-08-14T01:16:32.394Z,22.00
2022-08-14T01:19:19.900Z,21.90
2022-08-14T01:21:53.107Z,21.90
2022-08-14T01:24:30.379Z,21.80
2022-08-14T01:27:02.217Z,21.80
2022-08-14T01:29:58.223Z,21.70
2022-08-14T01:32:23.325Z,21.60
2022-08-14T01:35:21.221Z,21.50
2022-08-14T01:37:54.841Z,21.40
2022-08-14T01:40:36.859Z,21.30
2022-08-14T01:43:14.843Z,21.20
2022-08-14T01:45:42.580Z,21.10
2022-08-14T01:48:20.752Z,21.10
2022-08-14T01:50:48.075Z,21.10
2022-08-14T01:53:18.076Z,21.20
2022-08-14T01:55:45.925Z,21.10
2022-08-14T01:58:19.595Z,20.90
2022-08-14T02:00:55.535Z,20.90
2022-08-14T02:03:32.891Z,20.80
2022-08-14T02:06:31.918Z,20.80
2022-08-14T02:08:52.902Z,20.80
2022-08-14T02:11:24.400Z,20.80
2022-08-14T02:14:14.150Z,20.70
2022-08-14T02:16:45.557Z,20.60
2022-08-14T02:19:19.049Z,20.60
2022-08-14T02:21:50.698Z,20.50
2022-08-14T02:24:38.932Z,20.30
2022-08-14T02:28:25.514Z,20.30
2022-08-14T02:30:00.919Z,20.30
2022-08-14T02:32:36.453Z,20.40
2022-08-14T02:35:13.991Z,20.20
2022-08-14T02:37:47.057Z,20.20
2022-08-14T02:40:16.411Z,20.20
2022-08-14T02:42:54.168Z,20.10
2022-08-14T02:45:22.415Z,20.10
2022-08-14T02:47:53.891Z,20.10
2022-08-14T02:50:26.948Z,20.10
2022-08-14T02:52:55.991Z,20.10
2022-08-14T02:55:34.572Z,20.10
2022-08-14T02:58:03.290Z,19.90
2022-08-14T03:00:33.151Z,19.90
2022-08-14T03:03:01.810Z,19.90
2022-08-14T03:05:30.634Z,19.90
2022-08-14T03:08:08.717Z,19.80
2022-08-14T03:10:37.190Z,19.70
2022-08-14T03:13:19.151Z,19.60
2022-08-14T03:15:58.100Z,19.60
2022-08-14T03:18:31.339Z,19.50
2022-08-14T03:21:08.036Z,19.60
2022-08-14T03:23:38.661Z,19.60
2022-08-14T03:26:12.662Z,19.50
2022-08-14T03:28:47.908Z,19.50
2022-08-14T03:31:15.740Z,19.50
2022-08-14T03:33:43.589Z,19.50
2022-08-14T03:37:51.115Z,19.40
2022-08-14T03:39:14.094Z,19.30
2022-08-14T03:41:51.126Z,19.20
2022-08-14T03:45:26.480Z,19.10
2022-08-14T03:47:05.494Z,19.10
2022-08-14T03:49:33.973Z,18.90
2022-08-14T03:52:17.766Z,18.90
2022-08-14T03:54:52.545Z,19.00
2022-08-14T03:57:22.759Z,19.00
2022-08-14T03:59:50.145Z,18.90
2022-08-14T04:02:32.655Z,18.90
2022-08-14T04:05:12.237Z,18.80
2022-08-14T04:07:49.386Z,18.80
2022-08-14T04:10:32.057Z,18.80
2022-08-14T04:13:03.449Z,18.80
2022-08-14T04:15:31.334Z,18.70
2022-08-14T04:17:59.090Z,18.70
2022-08-14T04:20:28.074Z,18.70
2022-08-14T04:22:55.567Z,18.80
2022-08-14T04:25:22.916Z,18.80
2022-08-14T04:28:02.132Z,18.80
2022-08-14T04:30:32.563Z,18.80
2022-08-14T04:33:06.262Z,18.80
2022-08-14T04:35:56.595Z,18.80
2022-08-14T04:38:42.815Z,18.80
2022-08-14T04:41:30.251Z,18.80
2022-08-14T04:43:57.770Z,18.80
2022-08-14T04:46:56.163Z,18.70
2022-08-14T04:49:15.209Z,18.60
2022-08-14T04:51:46.696Z,18.60
2022-08-14T04:54:18.455Z,18.60
2022-08-14T04:56:45.538Z,18.70
2022-08-14T04:59:12.599Z,18.70
2022-08-14T05:01:48.515Z,18.70
2022-08-14T05:04:20.297Z,18.80
2022-08-14T05:06:49.336Z,18.90
2022-08-14T05:09:17.296Z,19.00
2022-08-14T05:11:44.868Z,19.00
2022-08-14T05:14:34.084Z,19.10
2022-08-14T05:17:01.581Z,19.20
2022-08-14T05:19:31.885Z,19.10
2022-08-14T05:22:16.892Z,19.20
2022-08-14T05:24:49.609Z,19.30
2022-08-14T05:27:22.719Z,19.40
2022-08-14T05:29:57.011Z,19.40
2022-08-14T05:32:27.809Z,19.40
2022-08-14T05:34:59.743Z,19.50
2022-08-14T05:37:29.890Z,19.60
2022-08-14T05:39:58.557Z,19.60
2022-08-14T05:42:26.917Z,19.70
2022-08-14T05:44:57.531Z,19.80
2022-08-14T05:47:28.988Z,19.90
2022-08-14T05:50:17.676Z,20.00
2022-08-14T05:52:46.220Z,20.10
2022-08-14T05:55:13.458Z,20.20
2022-08-14T05:57:50.862Z,20.30
2022-08-14T06:00:24.529Z,20.40
2022-08-14T06:02:58.394Z,20.50
2022-08-14T06:05:28.762Z,20.60
2022-08-14T06:07:57.991Z,20.70
2022-08-14T06:10:25.887Z,20.80
2022-08-14T06:12:57.293Z,20.90
2022-08-14T06:15:29.615Z,21.00
2022-08-14T06:17:59.548Z,21.10
2022-08-14T06:20:28.241Z,21.20
2022-08-14T06:22:56.460Z,21.30
2022-08-14T06:25:24.979Z,21.40
2022-08-14T06:27:52.746Z,21.50
2022-08-14T06:30:22.278Z,21.60
2022-08-14T06:32:52.336Z,21.80
2022-08-14T06:35:23.979Z,21.90
2022-08-14T06:37:53.844Z,22.00
2022-08-14T06:40:29.165Z,22.20
2022-08-14T06:43:03.170Z,22.30
2022-08-14T06:45:31.511Z,22.40
2022-08-14T06:47:59.353Z,22.60
2022-08-14T06:50:28.644Z,22.70
2022-08-14T06:52:58.856Z,22.70
2022-08-14T06:55:27.720Z,22.90
2022-08-14T06:57:57.881Z,23.00
2022-08-14T07:00:30.999Z,23.10
2022-08-14T07:03:19.357Z,23.20
2022-08-14T07:05:57.861Z,23.30
2022-08-14T07:08:31.478Z,23.50
2022-08-14T07:11:01.298Z,23.60
2022-08-14T07:13:30.411Z,23.70
2022-08-14T07:16:00.596Z,23.90
2022-08-14T07:18:34.754Z,24.20
2022-08-14T07:21:03.578Z,24.30
2022-08-14T07:23:31.300Z,24.40
2022-08-14T07:26:00.331Z,24.60
2022-08-14T07:28:35.863Z,24.70
2022-08-14T07:31:11.215Z,24.80
2022-08-14T07:33:43.472Z,24.90
2022-08-14T07:36:26.542Z,25.10
2022-08-14T07:38:56.781Z,25.10
2022-08-14T07:41:23.981Z,25.20
2022-08-14T07:43:55.856Z,25.30
2022-08-14T07:46:29.373Z,25.40
2022-08-14T07:48:58.793Z,25.60
2022-08-14T07:51:34.402Z,25.70
2022-08-14T07:54:09.802Z,25.80
2022-08-14T07:56:46.941Z,26.00
2022-08-14T07:59:18.476Z,26.10
2022-08-14T08:01:51.266Z,26.10
2022-08-14T08:04:25.208Z,26.20
2022-08-14T08:06:55.015Z,26.40
2022-08-14T08:09:32.157Z,26.50
2022-08-14T08:12:05.080Z,26.60
2022-08-14T08:14:56.742Z,26.70
2022-08-14T08:17:25.795Z,26.80
2022-08-14T08:19:52.819Z,27.00
2022-08-14T08:22:21.814Z,27.20
2022-08-14T08:24:50.241Z,27.40
2022-08-14T08:27:21.377Z,27.60
2022-08-14T08:29:50.810Z,27.80
2022-08-14T08:32:19.039Z,27.90
2022-08-14T08:34:49.176Z,28.00
2022-08-14T08:37:16.569Z,28.10
2022-08-14T08:40:01.367Z,28.10
2022-08-14T08:42:31.623Z,28.20
2022-08-14T08:45:12.171Z,28.30
2022-08-14T08:47:40.958Z,28.40
2022-08-14T08:53:07.146Z,28.80
2022-08-14T08:55:37.986Z,28.90
2022-08-14T08:58:16.340Z,29.00
2022-08-14T09:00:54.242Z,29.20
2022-08-14T09:03:27.555Z,29.30
2022-08-14T09:06:01.670Z,29.40
2022-08-14T09:08:33.852Z,29.50
2022-08-14T09:11:19.059Z,29.50
2022-08-14T09:13:50.578Z,29.60
2022-08-14T09:16:25.281Z,29.70
2022-08-14T09:18:54.753Z,29.80
2022-08-14T09:21:24.075Z,29.90
2022-08-14T09:24:29.324Z,30.00
2022-08-14T09:26:48.866Z,29.90
2022-08-14T09:29:17.027Z,29.90
2022-08-14T09:31:52.725Z,29.80
2022-08-14T09:34:29.285Z,29.90
2022-08-14T09:37:11.286Z,30.10
2022-08-14T09:40:06.765Z,30.40
2022-08-14T09:42:55.970Z,30.50
2022-08-14T09:45:52.944Z,30.60
2022-08-14T09:48:29.966Z,30.60
2022-08-14T09:54:18.741Z,30.50
2022-08-14T09:56:46.971Z,30.60
2022-08-14T09:59:32.061Z,30.70
2022-08-14T10:01:59.729Z,30.70
2022-08-14T10:04:34.396Z,30.80
2022-08-14T10:07:05.558Z,30.80
2022-08-14T10:09:33.621Z,30.80
2022-08-14T10:12:04.374Z,30.90
2022-08-14T10:14:36.399Z,30.90
2022-08-14T10:17:08.785Z,31.00
2022-08-14T10:19:47.081Z,31.20
2022-08-14T10:23:14.835Z,31.20
2022-08-14T10:25:12.369Z,31.30
2022-08-14T10:27:39.425Z,31.50
2022-08-14T10:30:14.817Z,31.50
2022-08-14T10:32:51.702Z,31.50
2022-08-14T10:35:22.546Z,31.50
2022-08-14T10:37:54.644Z,31.60
2022-08-14T10:40:38.162Z,31.70
2022-08-14T10:43:26.565Z,31.80
2022-08-14T10:46:59.253Z,31.80
2022-08-14T10:49:04.397Z,31.80
2022-08-14T10:51:39.677Z,31.80
2022-08-14T10:54:35.277Z,31.90
2022-08-14T10:56:58.051Z,31.90
2022-08-14T10:59:31.021Z,31.90
2022-08-14T11:02:54.560Z,32.10
2022-08-14T11:05:26.565Z,32.30
2022-08-14T11:07:56.586Z,32.40
2022-08-14T11:10:43.548Z,32.50
2022-08-14T11:13:15.796Z,32.60
2022-08-14T11:15:43.166Z,32.60
2022-08-14T11:18:20.477Z,32.50
2022-08-14T11:20:59.857Z,32.70
2022-08-14T11:23:38.295Z,32.80
2022-08-14T11:26:08.904Z,32.90
2022-08-14T11:28:48.116Z,33.10
2022-08-14T11:31:20.757Z,33.30
2022-08-14T11:33:53.252Z,33.40
2022-08-14T11:36:56.868Z,33.50
2022-08-14T11:39:33.609Z,33.50
2022-08-14T11:42:57.877Z,33.70
2022-08-14T11:45:00.803Z,33.60
2022-08-14T11:47:35.478Z,33.70
2022-08-14T11:50:24.970Z,33.80
2022-08-14T11:53:04.424Z,34.10
2022-08-14T11:55:44.670Z,34.20
2022-08-14T11:58:15.641Z,34.10
2022-08-14T12:00:54.489Z,34.10
2022-08-14T12:03:37.411Z,34.10
2022-08-14T12:06:28.477Z,34.30
2022-08-14T12:09:01.002Z,34.50
2022-08-14T12:11:43.385Z,34.40
2022-08-14T12:14:30.533Z,34.30
2022-08-14T12:17:09.615Z,34.40
2022-08-14T12:19:56.724Z,34.60
2022-08-14T12:22:42.381Z,34.80
2022-08-14T12:25:19.544Z,34.80
2022-08-14T12:27:54.283Z,34.80
2022-08-14T12:30:37.649Z,35.00
2022-08-14T12:33:18.992Z,35.00
2022-08-14T12:35:46.557Z,35.10
2022-08-14T12:38:21.006Z,35.20
2022-08-14T12:40:52.832Z,35.10
2022-08-14T12:43:23.162Z,35.10
2022-08-14T12:45:55.206Z,35.20
2022-08-14T12:48:32.065Z,35.30
2022-08-14T12:50:59.460Z,35.20
2022-08-14T12:53:38.574Z,35.30
2022-08-14T12:56:22.307Z,35.40
2022-08-14T12:58:58.447Z,35.40
2022-08-14T13:01:31.642Z,35.40
2022-08-14T13:04:18.957Z,35.50
2022-08-14T13:06:50.731Z,35.50
2022-08-14T13:09:19.464Z,35.70
2022-08-14T13:11:58.482Z,35.90
2022-08-14T13:14:29.806Z,36.20
2022-08-14T13:16:58.654Z,36.10
2022-08-14T13:19:26.830Z,36.00
2022-08-14T13:22:05.976Z,36.00
2022-08-14T13:24:39.510Z,36.10
2022-08-14T13:27:10.065Z,36.00
2022-08-14T13:29:46.556Z,36.10
2022-08-14T13:32:15.124Z,36.30
2022-08-14T13:34:45.343Z,36.50
2022-08-14T13:37:17.373Z,36.60
2022-08-14T13:39:57.014Z,36.70
2022-08-14T13:42:30.201Z,37.00
2022-08-14T13:45:01.115Z,36.70
2022-08-14T13:47:30.289Z,36.70
2022-08-14T13:50:04.723Z,36.80
2022-08-14T13:52:52.485Z,36.80
2022-08-14T13:55:28.666Z,36.80
2022-08-14T13:58:03.795Z,36.80
2022-08-14T14:00:35.618Z,36.80
2022-08-14T14:03:06.531Z,37.00
2022-08-14T14:05:52.573Z,37.10
2022-08-14T14:08:46.355Z,37.20
2022-08-14T14:11:14.322Z,37.30
2022-08-14T14:13:45.898Z,37.40
2022-08-14T14:16:21.907Z,37.40
2022-08-14T14:19:06.847Z,37.40
2022-08-14T14:21:40.607Z,37.50
2022-08-14T14:24:15.020Z,37.40
2022-08-14T14:26:49.927Z,37.20
2022-08-14T14:29:24.070Z,37.10
2022-08-14T14:31:53.558Z,37.00
2022-08-14T14:34:29.444Z,36.80
2022-08-14T14:37:11.431Z,36.50
2022-08-14T14:40:53.585Z,36.30
2022-08-14T14:42:32.240Z,36.10
2022-08-14T14:45:15.967Z,36.00
2022-08-14T14:47:46.811Z,36.00
2022-08-14T14:50:16.041Z,36.10
2022-08-14T14:52:44.493Z,36.00
2022-08-14T14:55:13.281Z,36.10
2022-08-14T14:57:51.882Z,36.20
2022-08-14T15:00:21.919Z,36.20
2022-08-14T15:02:57.732Z,36.20
2022-08-14T15:05:28.442Z,36.10
2022-08-14T15:07:56.173Z,36.00
2022-08-14T15:10:26.936Z,35.80
2022-08-14T15:13:04.166Z,35.80
2022-08-14T15:15:33.046Z,35.70
2022-08-14T15:18:00.294Z,35.60
2022-08-14T15:20:30.327Z,35.50
2022-08-14T15:23:11.924Z,35.40
2022-08-14T15:25:40.626Z,35.30
2022-08-14T15:28:12.736Z,35.30
2022-08-14T15:30:46.259Z,35.40
2022-08-14T15:34:00.950Z,35.40
2022-08-14T15:36:31.586Z,35.40
2022-08-14T15:38:59.539Z,35.30
2022-08-14T15:41:27.262Z,35.30
2022-08-14T15:44:25.453Z,35.30
2022-08-14T15:46:55.887Z,35.20
2022-08-14T15:49:28.541Z,35.20
2022-08-14T15:52:04.345Z,35.30
2022-08-14T15:54:34.025Z,35.30
2022-08-14T15:57:05.573Z,35.20
2022-08-14T15:59:55.427Z,35.10
2022-08-14T16:02:24.438Z,35.00
2022-08-14T16:04:54.937Z,34.80
2022-08-14T16:07:25.215Z,34.70
2022-08-14T16:10:18.601Z,34.80
2022-08-14T16:12:47.732Z,34.90
2022-08-14T16:15:16.704Z,34.80
2022-08-14T16:17:45.034Z,34.80
2022-08-14T16:20:12.219Z,34.80
2022-08-14T16:23:10.504Z,34.80
2022-08-14T16:25:35.451Z,34.70
2022-08-14T16:28:07.344Z,34.70
2022-08-14T16:30:35.479Z,34.50
2022-08-14T16:33:06.100Z,34.40
2022-08-14T16:38:45.583Z,34.20
2022-08-14T16:41:23.439Z,34.00
2022-08-14T16:43:59.270Z,33.80
2022-08-14T16:46:27.539Z,33.70
2022-08-14T16:48:58.532Z,33.60
2022-08-14T16:51:36.236Z,33.60
2022-08-14T16:54:33.980Z,33.60
2022-08-14T16:56:52.799Z,33.50
2022-08-14T16:59:20.977Z,33.50
2022-08-14T17:02:01.072Z,33.50
2022-08-14T17:04:34.885Z,33.40
2022-08-14T17:07:13.822Z,33.30
2022-08-14T17:09:54.787Z,33.30
2022-08-14T17:12:33.666Z,33.20
2022-08-14T17:15:11.344Z,33.20
2022-08-14T17:17:43.980Z,33.10
2022-08-14T17:20:53.947Z,33.00
2022-08-14T17:23:11.596Z,33.10
2022-08-14T17:25:39.223Z,33.00
2022-08-14T17:28:52.758Z,32.90
2022-08-14T17:31:19.314Z,32.90
2022-08-14T17:33:52.462Z,32.80
2022-08-14T17:36:23.193Z,32.70
2022-08-14T17:39:06.457Z,32.60
2022-08-14T17:41:43.458Z,32.40
2022-08-14T17:44:21.899Z,32.30
2022-08-14T17:47:06.708Z,32.20
2022-08-14T17:49:40.503Z,32.10
2022-08-14T17:52:17.673Z,32.00
2022-08-14T17:54:59.016Z,32.00
2022-08-14T17:57:45.383Z,31.90
2022-08-14T18:00:16.583Z,31.90
2022-08-14T18:02:51.226Z,31.80
2022-08-14T18:05:23.787Z,31.80
2022-08-14T18:08:32.290Z,31.80
2022-08-14T18:10:56.762Z,31.70
2022-08-14T18:13:51.420Z,31.60
2022-08-14T18:16:20.227Z,31.60
2022-08-14T18:18:49.831Z,31.50
2022-08-14T18:21:40.068Z,31.40
2022-08-14T18:24:29.214Z,31.40
2022-08-14T18:27:01.761Z,31.30
2022-08-14T18:29:32.059Z,31.20
2022-08-14T18:32:00.085Z,31.10
2022-08-14T18:34:37.613Z,31.00
2022-08-14T18:37:17.437Z,30.90
2022-08-14T18:40:02.421Z,30.80
2022-08-14T18:42:34.808Z,30.70
2022-08-14T18:45:12.393Z,30.50
2022-08-14T18:48:14.381Z,30.30
2022-08-14T18:50:30.899Z,30.20
2022-08-14T18:53:10.545Z,30.10
2022-08-14T18:55:53.124Z,30.10
2022-08-14T18:58:33.964Z,30.00
2022-08-14T19:01:06.301Z,30.00
2022-08-14T19:03:39.474Z,29.80
2022-08-14T19:06:10.480Z,29.80
2022-08-14T19:08:48.307Z,29.60
2022-08-14T19:11:37.145Z,29.50
2022-08-14T19:14:05.832Z,29.40
2022-08-14T19:16:42.736Z,29.30
2022-08-14T19:19:12.920Z,29.30
2022-08-14T19:21:58.835Z,29.20
2022-08-14T19:24:43.782Z,29.00
2022-08-14T19:27:24.661Z,29.00
2022-08-14T19:30:19.293Z,28.90
2022-08-14T19:32:50.732Z,28.80
2022-08-14T19:35:48.555Z,28.70
2022-08-14T19:38:53.915Z,28.60
2022-08-14T19:41:22.659Z,28.50
2022-08-14T19:43:56.842Z,28.50
2022-08-14T19:46:38.567Z,28.50
2022-08-14T19:49:23.268Z,28.40
2022-08-14T19:52:03.414Z,28.30
2022-08-14T19:54:36.181Z,28.30
2022-08-14T19:57:04.467Z,28.20
2022-08-14T19:59:36.721Z,28.00
2022-08-14T20:02:30.114Z,27.90
2022-08-14T20:04:59.427Z,27.80
2022-08-14T20:08:00.381Z,27.80
2022-08-14T20:11:03.334Z,27.80
2022-08-14T20:13:32.746Z,27.80
2022-08-14T20:16:11.855Z,27.60
2022-08-14T20:18:50.234Z,27.60
2022-08-14T20:21:18.677Z,27.50
2022-08-14T20:23:48.287Z,27.30
2022-08-14T20:26:30.772Z,27.30
2022-08-14T20:28:58.285Z,27.30
2022-08-14T20:31:25.982Z,27.30
2022-08-14T20:34:16.021Z,27.30
2022-08-14T20:37:04.561Z,27.20
2022-08-14T20:39:34.136Z,27.20
2022-08-14T20:42:38.323Z,27.20
2022-08-14T20:45:23.593Z,26.90
2022-08-14T20:48:01.103Z,26.80
2022-08-14T20:50:30.161Z,26.80
2022-08-14T20:53:00.377Z,26.70
2022-08-14T20:55:37.441Z,26.70
2022-08-14T20:58:44.806Z,26.70
2022-08-14T21:01:19.301Z,26.70
2022-08-14T21:03:57.427Z,26.60
2022-08-14T21:07:23.557Z,26.60
2022-08-14T21:09:20.044Z,26.60
2022-08-14T21:12:07.448Z,26.60
2022-08-14T21:14:55.180Z,26.50
2022-08-14T21:17:25.640Z,26.50
2022-08-14T21:19:54.055Z,26.50
2022-08-14T21:22:21.430Z,26.50
2022-08-14T21:24:48.523Z,26.50
2022-08-14T21:27:21.986Z,26.40
2022-08-14T21:29:55.711Z,26.40
2022-08-14T21:32:35.243Z,26.40
2022-08-14T21:35:08.257Z,26.30
2022-08-14T21:37:45.290Z,26.30
2022-08-14T21:40:18.626Z,26.30
2022-08-14T21:43:01.952Z,26.30
2022-08-14T21:45:35.467Z,26.30
2022-08-14T21:48:10.822Z,26.30
2022-08-14T21:51:00.045Z,26.20
2022-08-14T21:53:33.886Z,26.20
2022-08-14T21:56:03.187Z,26.20
2022-08-14T21:58:54.106Z,26.20
2022-08-14T22:01:19.932Z,26.20
2022-08-14T22:03:54.894Z,26.10
2022-08-14T22:06:28.764Z,26.10
2022-08-14T22:08:58.322Z,26.00
2022-08-14T22:11:27.427Z,26.00
2022-08-14T22:13:56.153Z,26.00
2022-08-14T22:17:02.007Z,26.00
2022-08-14T22:19:18.037Z,26.00
2022-08-14T22:21:47.525Z,26.00
2022-08-14T22:24:37.631Z,26.00
2022-08-14T22:27:06.841Z,26.00
2022-08-14T22:29:34.746Z,26.00
2022-08-14T22:32:07.106Z,26.00
2022-08-14T22:34:34.675Z,26.00
2022-08-14T22:37:02.256Z,26.00
2022-08-14T22:40:17.645Z,25.90
2022-08-14T22:42:22.782Z,25.90
2022-08-14T22:44:52.011Z,25.90
2022-08-14T22:47:25.093Z,25.90
2022-08-14T22:50:30.356Z,25.90
2022-08-14T22:52:41.635Z,25.90
2022-08-14T22:55:17.025Z,25.80
2022-08-14T22:57:44.335Z,25.90
2022-08-14T23:00:25.391Z,25.80
2022-08-14T23:03:01.570Z,25.80
2022-08-14T23:05:39.628Z,25.80
2022-08-14T23:08:58.573Z,25.80
2022-08-14T23:10:59.882Z,25.80
2022-08-14T23:13:27.073Z,25.70
2022-08-14T23:15:58.319Z,25.70
2022-08-14T23:18:29.576Z,25.70
2022-08-14T23:20:57.747Z,25.70
2022-08-14T23:23:25.042Z,25.70
2022-08-14T23:25:59.803Z,25.70
2022-08-14T23:28:58.270Z,25.70
2022-08-14T23:31:35.560Z,25.60
2022-08-14T23:34:10.994Z,25.60
2022-08-14T23:36:53.958Z,25.70
2022-08-14T23:39:31.685Z,25.70
2022-08-14T23:42:07.378Z,25.70
2022-08-14T23:44:38.858Z,25.60
2022-08-14T23:47:10.855Z,25.60
2022-08-14T23:50:01.013Z,25.60
2022-08-14T23:52:50.099Z,25.60
2022-08-14T23:55:15.434Z,25.60
2022-08-14T23:57:43.822Z,25.60
